Time;durP1;ratioP1;P1;durP2;ratioP2;P2;SDS_P1;SDS_P2;PMS_P1;PMS_P2;Temp;Humidity;BMP_temperature;BMP_pressure;BME280_temperature;BME280_humidity;BME280_pressure;Samples;Min_cycle;Max_cycle;Signal;HPM_P1;HPM_P2
2022/12/21 00:01:14;;;;;;;0.93;0.93;;;17.30;61.60;;;;;;5084216;28;43848;-70
2022/12/21 00:03:43;;;;;;;0.93;0.93;;;17.30;61.60;;;;;;5086267;28;43480;-70
2022/12/21 00:06:11;;;;;;;0.90;0.90;;;17.30;61.60;;;;;;5086696;28;43434;-70
2022/12/21 00:08:41;;;;;;;1.07;1.07;;;17.30;61.60;;;;;;5086316;28;43462;-71
2022/12/21 00:11:09;;;;;;;1.00;1.00;;;17.30;61.80;;;;;;5081068;28;43716;-72
2022/12/21 00:13:37;;;;;;;0.80;0.80;;;17.30;61.80;;;;;;5085997;28;43395;-71
2022/12/21 00:16:07;;;;;;;0.90;0.90;;;17.20;61.90;;;;;;5066609;28;43461;-70
2022/12/21 00:18:36;;;;;;;0.80;0.80;;;17.30;61.90;;;;;;5082943;28;43382;-72
2022/12/21 00:21:05;;;;;;;1.00;1.00;;;17.20;61.80;;;;;;5089527;28;43746;-71
2022/12/21 00:23:33;;;;;;;0.80;0.80;;;17.20;61.80;;;;;;5071113;28;44677;-70
2022/12/21 00:26:02;;;;;;;1.00;1.00;;;17.20;61.90;;;;;;5089532;28;43558;-70
2022/12/21 00:28:30;;;;;;;1.00;1.00;;;17.20;61.90;;;;;;5089103;28;43543;-71
2022/12/21 00:31:06;;;;;;;1.00;1.00;;;17.20;62.10;;;;;;5070649;28;45873;-71
2022/12/21 00:33:34;;;;;;;1.00;1.00;;;17.20;62.00;;;;;;5088614;28;43401;-69
2022/12/21 00:36:02;;;;;;;0.90;0.90;;;17.30;61.90;;;;;;5083884;28;43397;-70
2022/12/21 00:38:30;;;;;;;0.90;0.90;;;17.30;61.60;;;;;;5090171;28;43503;-72
2022/12/21 00:40:58;;;;;;;0.90;0.90;;;17.40;61.70;;;;;;5089067;28;43740;-71
2022/12/21 00:43:26;;;;;;;0.80;0.80;;;17.30;61.60;;;;;;5067429;28;44645;-71
2022/12/21 00:45:54;;;;;;;0.83;0.83;;;17.30;61.70;;;;;;5089714;28;43409;-71
2022/12/21 00:48:23;;;;;;;1.00;1.00;;;17.30;61.90;;;;;;5089832;28;44496;-72
2022/12/21 00:50:52;;;;;;;0.70;0.70;;;17.30;61.80;;;;;;5082206;28;43856;-72
2022/12/21 00:53:20;;;;;;;0.83;0.83;;;17.30;61.80;;;;;;5089289;28;43537;-70
2022/12/21 00:55:54;;;;;;;0.87;0.87;;;17.30;61.80;;;;;;5070930;28;43394;-71
2022/12/21 00:58:23;;;;;;;0.80;0.80;;;17.30;61.90;;;;;;5084441;28;43449;-71
2022/12/21 01:00:53;;;;;;;0.80;0.80;;;17.30;61.90;;;;;;5088750;28;44036;-71
2022/12/21 01:03:22;;;;;;;0.87;0.87;;;17.20;62.00;;;;;;5089102;28;43423;-69
2022/12/21 01:05:52;;;;;;;0.80;0.80;;;17.30;62.10;;;;;;5085527;28;43416;-72
2022/12/21 01:08:20;;;;;;;1.00;1.00;;;17.30;61.90;;;;;;5066626;28;44164;-72
2022/12/21 01:10:48;;;;;;;0.70;0.70;;;17.40;61.70;;;;;;5064754;28;45988;-71
2022/12/21 01:13:16;;;;;;;0.73;0.73;;;17.40;61.60;;;;;;5088722;28;43868;-71
2022/12/21 01:15:45;;;;;;;0.70;0.70;;;17.40;61.70;;;;;;5065810;28;43372;-71
2022/12/21 01:18:14;;;;;;;0.80;0.80;;;17.40;61.70;;;;;;5086865;28;44031;-70
2022/12/21 01:20:45;;;;;;;0.87;0.87;;;17.30;61.80;;;;;;5066067;28;45233;-71
2022/12/21 01:23:15;;;;;;;0.70;0.70;;;17.30;61.80;;;;;;5070379;28;44728;-71
2022/12/21 01:25:42;;;;;;;0.70;0.70;;;17.30;61.70;;;;;;5084513;28;43462;-72
2022/12/21 01:28:10;;;;;;;0.80;0.80;;;17.30;61.80;;;;;;5088696;28;43604;-70
2022/12/21 01:30:39;;;;;;;0.90;0.90;;;17.30;61.80;;;;;;5069917;28;45744;-71
2022/12/21 01:33:07;;;;;;;0.90;0.90;;;17.30;61.90;;;;;;5069807;28;45010;-71
2022/12/21 01:35:39;;;;;;;0.90;0.90;;;17.30;62.10;;;;;;5088333;28;43440;-70
2022/12/21 01:38:08;;;;;;;0.80;0.80;;;17.30;62.20;;;;;;5069670;28;43356;-71
2022/12/21 01:40:36;;;;;;;1.00;1.00;;;17.30;61.90;;;;;;5085419;28;43987;-70
2022/12/21 01:43:39;;;;;;;0.70;0.70;;;17.40;61.70;;;;;;5088532;28;43443;-70
2022/12/21 01:46:06;;;;;;;0.87;0.87;;;17.40;61.70;;;;;;5083550;28;43484;-72
2022/12/21 01:48:35;;;;;;;0.70;0.70;;;17.40;61.70;;;;;;5088919;28;43433;-70
2022/12/21 01:51:04;;;;;;;0.80;0.80;;;17.30;61.70;;;;;;5087556;28;43775;-71
2022/12/21 01:53:34;;;;;;;0.90;0.90;;;17.30;61.90;;;;;;5085255;28;43529;-71
2022/12/21 01:56:03;;;;;;;0.80;0.80;;;17.30;61.80;;;;;;5069409;28;43923;-72
2022/12/21 01:58:31;;;;;;;0.90;0.90;;;17.30;61.80;;;;;;5069909;28;43622;-72
2022/12/21 02:00:59;;;;;;;0.70;0.70;;;17.30;61.80;;;;;;5065333;28;45769;-70
2022/12/21 02:03:28;;;;;;;1.00;1.00;;;17.30;61.90;;;;;;5069406;28;43435;-71
2022/12/21 02:06:00;;;;;;;0.70;0.70;;;17.30;61.90;;;;;;5069217;28;44080;-70
2022/12/21 02:08:28;;;;;;;0.90;0.90;;;17.30;62.20;;;;;;5085825;28;43936;-71
2022/12/21 02:10:57;;;;;;;0.70;0.70;;;17.30;62.00;;;;;;5068953;28;46404;-71
2022/12/21 02:13:25;;;;;;;0.80;0.80;;;17.30;62.00;;;;;;5069268;28;44726;-73
2022/12/21 02:16:01;;;;;;;0.97;0.97;;;17.30;62.00;;;;;;5087783;28;43463;-70
2022/12/21 02:18:43;;;;;;;0.90;0.90;;;17.30;62.00;;;;;;5084849;28;43408;-71
2022/12/21 02:21:26;;;;;;;0.70;0.70;;;17.20;62.00;;;;;;5087382;28;43801;-72
2022/12/21 02:24:37;;;;;;;0.67;0.67;;;17.30;62.20;;;;;;5085628;28;43433;-71
2022/12/21 02:27:33;;;;;;;0.80;0.80;;;17.30;62.20;;;;;;5087944;28;43403;-71
2022/12/21 02:30:22;;;;;;;0.70;0.70;;;17.40;62.00;;;;;;5086170;28;44023;-71
2022/12/21 02:33:05;;;;;;;0.70;0.70;;;17.40;61.60;;;;;;5064612;28;45877;-72
2022/12/21 02:35:50;;;;;;;0.80;0.80;;;17.50;61.50;;;;;;5067860;28;44360;-71
2022/12/21 02:38:28;;;;;;;0.80;0.80;;;17.40;61.40;;;;;;5069297;28;43525;-71
2022/12/21 02:41:00;;;;;;;0.80;0.80;;;17.40;61.70;;;;;;5068733;28;43565;-72
2022/12/21 02:46:22;;;;;;;0.60;0.60;;;17.40;61.60;;;;;;5068715;28;44495;-71
2022/12/21 02:48:52;;;;;;;0.80;0.80;;;17.40;61.70;;;;;;5087185;28;43529;-70
2022/12/21 02:51:23;;;;;;;0.70;0.70;;;17.40;61.80;;;;;;5069376;28;43767;-71
2022/12/21 02:53:52;;;;;;;0.70;0.70;;;17.40;61.90;;;;;;5068676;28;45613;-71
2022/12/21 02:56:20;;;;;;;0.70;0.70;;;17.30;62.00;;;;;;5068521;28;44333;-70
2022/12/21 02:58:48;;;;;;;0.80;0.80;;;17.30;62.70;;;;;;5068529;28;44017;-70
2022/12/21 03:01:32;;;;;;;0.60;0.60;;;17.30;61.90;;;;;;5069146;28;43940;-71
2022/12/21 03:04:32;;;;;;;0.70;0.70;;;17.30;61.90;;;;;;5062609;28;44050;-71
2022/12/21 03:07:17;;;;;;;0.80;0.80;;;17.30;62.00;;;;;;5060819;28;44430;-71
2022/12/21 03:09:49;;;;;;;0.80;0.80;;;17.30;62.00;;;;;;5083646;28;43398;-69
2022/12/21 03:12:21;;;;;;;0.70;0.70;;;17.30;62.20;;;;;;5066031;28;44246;-70
2022/12/21 03:14:53;;;;;;;0.90;0.90;;;17.30;62.10;;;;;;5087055;28;44021;-71
2022/12/21 03:17:24;;;;;;;0.50;0.50;;;17.30;62.10;;;;;;5084180;28;44496;-70
2022/12/21 03:19:56;;;;;;;0.80;0.80;;;17.30;62.10;;;;;;5068841;28;43404;-71
2022/12/21 03:22:29;;;;;;;0.60;0.60;;;17.30;62.10;;;;;;5066534;28;43509;-72
2022/12/21 03:25:00;;;;;;;0.70;0.70;;;17.30;62.20;;;;;;5086809;28;43760;-71
2022/12/21 03:27:31;;;;;;;0.70;0.70;;;17.20;62.20;;;;;;5086709;28;43454;-71
2022/12/21 03:30:02;;;;;;;0.73;0.73;;;17.30;62.30;;;;;;5068293;28;43853;-72
2022/12/21 03:32:32;;;;;;;0.80;0.80;;;17.40;62.10;;;;;;5082023;28;43409;-71
2022/12/21 03:35:00;;;;;;;0.60;0.60;;;17.40;61.70;;;;;;5086351;28;43914;-72
2022/12/21 03:37:30;;;;;;;0.77;0.77;;;17.50;61.60;;;;;;5067987;28;44870;-71
2022/12/21 03:39:59;;;;;;;0.70;0.70;;;17.50;61.60;;;;;;5085109;28;43489;-72
2022/12/21 03:42:33;;;;;;;0.70;0.70;;;17.40;61.60;;;;;;5087102;28;43414;-71
2022/12/21 03:45:05;;;;;;;0.70;0.70;;;17.40;61.70;;;;;;5086642;28;43908;-71
2022/12/21 03:47:35;;;;;;;0.50;0.50;;;17.40;61.70;;;;;;5086930;28;44077;-71
2022/12/21 03:50:04;;;;;;;0.73;0.73;;;17.40;61.70;;;;;;5067147;28;43492;-71
2022/12/21 03:52:36;;;;;;;0.60;0.60;;;17.40;61.90;;;;;;5087070;28;43473;-71
2022/12/21 03:55:06;;;;;;;0.70;0.70;;;17.40;61.90;;;;;;5089094;28;43917;-72
2022/12/21 03:57:34;;;;;;;0.70;0.70;;;17.30;61.90;;;;;;5070959;28;44709;-70
2022/12/21 04:00:04;;;;;;;0.70;0.70;;;17.30;62.10;;;;;;5085897;28;43457;-70
2022/12/21 04:02:40;;;;;;;0.77;0.77;;;17.40;62.10;;;;;;5089754;28;43434;-72
2022/12/21 04:05:11;;;;;;;0.70;0.70;;;17.30;62.00;;;;;;5071371;28;46139;-71
2022/12/21 04:07:40;;;;;;;0.47;0.47;;;17.40;62.20;;;;;;5089645;28;43975;-70
2022/12/21 04:10:10;;;;;;;0.60;0.60;;;17.30;62.00;;;;;;5089952;28;43418;-71
2022/12/21 04:12:37;;;;;;;0.70;0.70;;;17.30;62.10;;;;;;5090070;28;43472;-71
2022/12/21 04:15:08;;;;;;;0.60;0.60;;;17.30;62.30;;;;;;5081500;28;43694;-71
2022/12/21 04:17:36;;;;;;;0.50;0.50;;;17.30;62.30;;;;;;5083492;28;43566;-71
2022/12/21 04:20:03;;;;;;;0.80;0.80;;;17.40;62.10;;;;;;5089475;28;43373;-70
2022/12/21 04:28:11;;;;;;;0.60;0.60;;;17.40;61.70;;;;;;5079720;28;43445;-70
2022/12/21 04:30:59;;;;;;;0.80;0.80;;;17.40;61.80;;;;;;5089783;28;43505;-70
2022/12/21 04:33:28;;;;;;;0.67;0.67;;;17.40;61.90;;;;;;5089164;27;43498;-70
2022/12/21 04:38:42;;;;;;;0.70;0.70;;;17.40;61.90;;;;;;5070894;28;45126;-70
2022/12/21 04:41:12;;;;;;;0.60;0.60;;;17.40;62.00;;;;;;5089163;28;43436;-69
2022/12/21 04:43:40;;;;;;;0.50;0.50;;;17.40;62.10;;;;;;5085851;28;43474;-71
2022/12/21 04:46:09;;;;;;;0.70;0.70;;;17.30;62.20;;;;;;5088980;28;43607;-70
2022/12/21 04:48:37;;;;;;;0.60;0.60;;;17.30;62.20;;;;;;5089124;28;43384;-70
2022/12/21 04:51:06;;;;;;;0.67;0.67;;;17.30;62.10;;;;;;5085819;28;43391;-70
2022/12/21 04:53:34;;;;;;;0.60;0.60;;;17.30;62.10;;;;;;5070221;28;43789;-71
2022/12/21 04:56:01;;;;;;;0.50;0.50;;;17.30;62.20;;;;;;5087160;28;43864;-71
2022/12/21 04:58:31;;;;;;;0.50;0.50;;;17.30;62.20;;;;;;5087882;28;43391;-71
2022/12/21 05:01:01;;;;;;;0.50;0.50;;;17.30;62.30;;;;;;5069206;28;43734;-70
2022/12/21 05:03:30;;;;;;;0.63;0.63;;;17.30;62.40;;;;;;5087837;27;43426;-69
2022/12/21 05:05:58;;;;;;;0.60;0.60;;;17.40;62.30;;;;;;5083320;28;43591;-70
2022/12/21 05:08:26;;;;;;;0.63;0.63;;;17.40;61.90;;;;;;5087977;28;43485;-71
2022/12/21 05:10:54;;;;;;;0.50;0.50;;;17.40;61.80;;;;;;5085430;28;43426;-72
2022/12/21 05:13:22;;;;;;;0.60;0.60;;;17.40;61.80;;;;;;5087847;28;43387;-73
2022/12/21 05:15:51;;;;;;;0.70;0.70;;;17.40;61.80;;;;;;5087962;28;43634;-71
2022/12/21 05:18:19;;;;;;;0.60;0.60;;;17.40;62.00;;;;;;5087511;28;43511;-70
2022/12/21 05:20:47;;;;;;;0.63;0.63;;;17.40;61.90;;;;;;5087742;28;43444;-71
2022/12/21 05:23:20;;;;;;;0.50;0.50;;;17.40;61.90;;;;;;5088448;28;43442;-70
2022/12/21 05:25:48;;;;;;;0.60;0.60;;;17.40;61.90;;;;;;5086163;28;44023;-70
2022/12/21 05:28:16;;;;;;;0.80;0.80;;;17.40;62.00;;;;;;5068575;28;44719;-71
2022/12/21 05:30:44;;;;;;;0.80;0.80;;;17.40;62.10;;;;;;5087152;28;43455;-70
2022/12/21 05:33:14;;;;;;;0.87;0.87;;;17.40;62.20;;;;;;5087320;28;43569;-71
2022/12/21 05:35:42;;;;;;;1.00;1.00;;;17.40;62.20;;;;;;5068970;28;45737;-71
2022/12/21 05:38:10;;;;;;;0.90;0.90;;;17.40;62.10;;;;;;5066759;28;44965;-71
2022/12/21 05:40:38;;;;;;;0.83;0.83;;;17.40;62.10;;;;;;5087187;28;43418;-70
2022/12/21 05:43:07;;;;;;;1.00;1.00;;;17.40;62.20;;;;;;5087441;28;44026;-71
2022/12/21 05:45:35;;;;;;;0.87;0.87;;;17.30;62.10;;;;;;5086482;28;43756;-71
2022/12/21 05:48:03;;;;;;;1.27;1.27;;;17.30;62.20;;;;;;5083552;28;43578;-70
2022/12/21 05:50:32;;;;;;;1.50;1.40;;;17.30;62.40;;;;;;5029688;28;1106828;-71
2022/12/21 05:53:00;;;;;;;1.20;1.20;;;17.40;62.40;;;;;;5069238;28;43499;-71
2022/12/21 05:55:28;;;;;;;1.43;1.33;;;17.50;62.10;;;;;;5088039;28;44115;-71
2022/12/21 05:57:55;;;;;;;1.50;1.40;;;17.50;61.70;;;;;;5085050;28;43498;-71
2022/12/21 06:00:24;;;;;;;1.20;1.20;;;17.50;61.70;;;;;;5069580;28;43423;-71
2022/12/21 06:02:51;;;;;;;1.40;1.30;;;17.50;61.70;;;;;;5088859;28;43398;-70
2022/12/21 06:05:20;;;;;;;1.10;1.10;;;17.50;62.60;;;;;;5069436;28;45861;-71
2022/12/21 06:07:49;;;;;;;1.37;1.37;;;17.40;61.90;;;;;;5088152;28;43777;-71
2022/12/21 06:10:24;;;;;;;1.47;1.40;;;17.40;61.80;;;;;;5087812;28;44007;-71
2022/12/21 06:12:52;;;;;;;1.70;1.60;;;17.40;61.90;;;;;;5088548;28;43455;-71
2022/12/21 06:15:20;;;;;;;1.50;1.50;;;17.40;62.00;;;;;;5087457;27;43955;-70
2022/12/21 06:17:49;;;;;;;1.70;1.60;;;17.40;62.00;;;;;;5068765;28;43539;-71
2022/12/21 06:20:17;;;;;;;1.80;1.70;;;17.40;62.20;;;;;;5069010;28;43876;-71
2022/12/21 06:22:45;;;;;;;1.90;1.80;;;17.40;62.30;;;;;;5088270;28;43364;-71
2022/12/21 06:25:14;;;;;;;1.50;1.50;;;17.40;62.20;;;;;;5087690;28;43854;-70
2022/12/21 06:27:42;;;;;;;1.70;1.60;;;17.40;62.20;;;;;;5087725;28;43446;-71
2022/12/21 06:30:11;;;;;;;1.67;1.57;;;17.40;62.20;;;;;;5069077;28;44109;-71
2022/12/21 06:32:39;;;;;;;2.00;1.90;;;17.40;62.30;;;;;;5087936;28;43534;-73
2022/12/21 06:35:08;;;;;;;1.90;1.80;;;17.40;62.40;;;;;;5063708;28;46031;-70
2022/12/21 06:37:37;;;;;;;1.60;1.50;;;17.30;62.50;;;;;;5087479;28;43415;-73
2022/12/21 06:40:06;;;;;;;1.57;1.47;;;17.40;62.40;;;;;;5068525;28;43584;-71
2022/12/21 06:42:35;;;;;;;3.03;2.13;;;17.50;62.20;;;;;;5087656;28;43466;-72
2022/12/21 06:45:04;;;;;;;1.77;1.63;;;17.60;61.80;;;;;;5082147;28;43920;-71
2022/12/21 06:47:32;;;;;;;1.73;1.63;;;17.60;61.60;;;;;;5086955;28;43331;-70
2022/12/21 06:50:00;;;;;;;1.77;1.67;;;17.60;61.70;;;;;;5086461;28;43402;-70
2022/12/21 06:52:28;;;;;;;1.83;1.73;;;17.60;61.90;;;;;;5087597;28;43508;-70
2022/12/21 06:54:56;;;;;;;1.60;1.60;;;17.50;61.80;;;;;;5067828;28;45862;-70
2022/12/21 06:57:24;;;;;;;1.93;1.83;;;17.50;61.80;;;;;;5086615;28;43501;-70
2022/12/21 06:59:53;;;;;;;1.70;1.60;;;17.50;61.90;;;;;;5087465;28;43349;-70
2022/12/21 07:02:21;;;;;;;1.90;1.80;;;17.50;61.90;;;;;;5084972;28;43499;-70
2022/12/21 07:04:52;;;;;;;1.70;1.60;;;17.50;62.00;;;;;;5086530;28;44060;-70
2022/12/21 07:07:20;;;;;;;1.90;1.70;;;17.40;62.10;;;;;;5086830;28;43479;-71
2022/12/21 07:09:48;;;;;;;1.97;1.87;;;17.40;62.10;;;;;;5086875;28;43354;-71
2022/12/21 07:12:16;;;;;;;1.80;1.70;;;17.40;62.10;;;;;;5087670;28;43473;-72
2022/12/21 07:14:44;;;;;;;1.60;1.50;;;17.40;62.00;;;;;;5086360;28;43951;-71
2022/12/21 07:17:13;;;;;;;2.00;1.90;;;17.40;62.20;;;;;;5084991;28;43994;-70
2022/12/21 07:19:49;;;;;;;1.47;1.43;;;17.40;62.20;;;;;;5068347;28;43443;-69
2022/12/21 07:22:17;;;;;;;1.80;1.70;;;17.40;62.30;;;;;;5087470;28;43495;-70
2022/12/21 07:24:45;;;;;;;1.77;1.67;;;17.40;62.50;;;;;;5086483;28;44069;-72
2022/12/21 07:27:13;;;;;;;1.77;1.67;;;17.40;62.40;;;;;;5086616;28;43492;-71
2022/12/21 07:29:40;;;;;;;2.00;1.90;;;17.50;62.10;;;;;;5082319;28;43431;-71
2022/12/21 07:32:09;;;;;;;1.73;1.63;;;17.50;61.90;;;;;;5085719;28;43363;-71
2022/12/21 07:34:39;;;;;;;1.50;1.50;;;17.50;61.90;;;;;;5086463;28;43932;-70
2022/12/21 07:37:07;;;;;;;1.60;1.50;;;17.50;62.00;;;;;;5086811;28;43434;-70
2022/12/21 07:39:35;;;;;;;1.90;1.80;;;17.40;62.00;;;;;;5084739;28;43470;-72
2022/12/21 07:42:03;;;;;;;1.80;1.70;;;17.40;62.10;;;;;;5086796;28;43568;-70
2022/12/21 07:44:38;;;;;;;1.80;1.70;;;17.40;62.10;;;;;;5063226;28;44027;-70
2022/12/21 07:47:25;;;;;;;1.60;1.60;;;17.50;62.20;;;;;;5067886;28;45010;-70
2022/12/21 07:49:54;;;;;;;1.60;1.50;;;17.40;62.20;;;;;;5086446;28;43454;-70
2022/12/21 07:52:22;;;;;;;1.90;1.80;;;17.40;62.30;;;;;;5086176;27;43396;-71
2022/12/21 07:54:50;;;;;;;2.17;2.07;;;17.40;62.40;;;;;;5086096;28;43897;-70
2022/12/21 07:57:18;;;;;;;1.90;1.80;;;17.40;62.40;;;;;;5068258;28;44658;-70
2022/12/21 07:59:46;;;;;;;1.97;1.87;;;17.40;62.20;;;;;;5085931;28;43453;-70
2022/12/21 08:02:14;;;;;;;1.90;1.80;;;17.50;62.10;;;;;;5087160;28;43372;-70
2022/12/21 08:04:42;;;;;;;2.20;2.10;;;17.50;62.10;;;;;;5086310;28;43943;-71
2022/12/21 08:07:11;;;;;;;1.93;1.83;;;17.50;62.20;;;;;;5086497;28;43459;-71
2022/12/21 08:09:39;;;;;;;1.80;1.67;;;17.40;62.10;;;;;;5086674;28;43407;-70
2022/12/21 08:12:07;;;;;;;1.47;1.47;;;17.40;62.30;;;;;;5087131;28;43412;-70
2022/12/21 08:14:44;;;;;;;1.80;1.70;;;17.40;62.10;;;;;;5083226;28;43997;-70
2022/12/21 08:17:12;;;;;;;1.90;1.80;;;17.40;62.20;;;;;;5086168;28;43939;-70
2022/12/21 08:19:40;;;;;;;1.73;1.63;;;17.50;62.40;;;;;;5086570;28;43369;-70
2022/12/21 08:22:09;;;;;;;1.57;1.57;;;17.40;62.30;;;;;;5068173;28;43673;-70
2022/12/21 08:24:39;;;;;;;1.80;1.70;;;17.40;62.40;;;;;;5081859;28;43687;-70
2022/12/21 08:27:07;;;;;;;1.50;1.50;;;17.40;62.60;;;;;;5076601;28;43515;-71
2022/12/21 08:29:36;;;;;;;1.57;1.57;;;17.40;62.50;;;;;;5079900;28;43398;-72
2022/12/21 08:32:04;;;;;;;1.50;1.50;;;17.50;62.30;;;;;;5086873;28;43367;-70
2022/12/21 08:34:32;;;;;;;2.10;2.00;;;17.60;62.00;;;;;;5086150;28;43845;-72
2022/12/21 08:37:01;;;;;;;1.63;1.60;;;17.60;61.90;;;;;;5066487;28;45019;-70
2022/12/21 08:39:29;;;;;;;1.60;1.60;;;17.50;61.90;;;;;;5087576;27;43450;-70
2022/12/21 08:41:58;;;;;;;1.40;1.40;;;17.50;62.00;;;;;;5086374;28;43427;-70
2022/12/21 08:44:26;;;;;;;1.40;1.40;;;17.50;62.10;;;;;;5089427;28;43945;-70
2022/12/21 08:46:54;;;;;;;1.60;1.50;;;17.50;62.10;;;;;;5089407;28;43439;-71
2022/12/21 08:49:22;;;;;;;1.67;1.57;;;17.50;62.10;;;;;;5085864;28;43972;-71
2022/12/21 08:51:50;;;;;;;1.60;1.60;;;17.50;62.20;;;;;;5089842;28;43427;-72
2022/12/21 08:54:18;;;;;;;1.63;1.53;;;17.40;62.20;;;;;;5089710;28;44049;-71
2022/12/21 08:56:45;;;;;;;1.80;1.70;;;17.40;62.30;;;;;;5084274;28;43425;-70
2022/12/21 08:59:15;;;;;;;1.33;1.33;;;17.40;62.40;;;;;;5089407;28;43454;-70
2022/12/21 09:01:43;;;;;;;1.37;1.37;;;17.40;62.40;;;;;;5089887;28;43497;-70
2022/12/21 09:04:11;;;;;;;1.60;1.60;;;17.40;62.30;;;;;;5089378;28;44052;-71
2022/12/21 09:06:39;;;;;;;1.50;1.50;;;17.40;62.30;;;;;;5088897;28;43491;-71
2022/12/21 09:09:08;;;;;;;1.50;1.50;;;17.40;62.40;;;;;;5089436;27;43893;-70
2022/12/21 09:11:36;;;;;;;2.13;1.70;;;17.40;62.40;;;;;;5070542;28;43546;-71
2022/12/21 09:14:19;;;;;;;2.00;1.90;;;17.40;62.70;;;;;;5085549;28;43663;-70
2022/12/21 09:16:47;;;;;;;2.00;1.90;;;17.50;62.70;;;;;;5088688;27;43875;-70
2022/12/21 09:19:15;;;;;;;1.80;1.70;;;17.50;62.20;;;;;;5088779;28;43537;-71
2022/12/21 09:21:43;;;;;;;1.70;1.60;;;17.60;62.10;;;;;;5070523;28;44003;-71
2022/12/21 09:24:11;;;;;;;1.30;1.30;;;17.60;61.90;;;;;;5088208;28;43767;-71
2022/12/21 09:26:41;;;;;;;1.60;1.60;;;17.60;62.10;;;;;;5088620;28;43530;-71
2022/12/21 09:29:09;;;;;;;2.00;1.80;;;17.50;62.10;;;;;;5071179;27;43327;-71
2022/12/21 09:31:39;;;;;;;1.50;1.50;;;17.50;62.10;;;;;;5087782;28;44018;-72
2022/12/21 09:34:07;;;;;;;1.50;1.50;;;17.50;62.10;;;;;;5085398;28;43878;-71
2022/12/21 09:36:35;;;;;;;1.50;1.50;;;17.50;62.20;;;;;;5088085;28;43994;-70
2022/12/21 09:39:22;;;;;;;1.60;1.50;;;17.50;62.30;;;;;;5088345;27;43542;-70
2022/12/21 09:41:56;;;;;;;1.67;1.60;;;17.50;62.40;;;;;;5089176;28;43467;-72
2022/12/21 09:44:44;;;;;;;1.50;1.50;;;17.40;62.40;;;;;;5088260;28;43881;-70
2022/12/21 09:47:15;;;;;;;1.67;1.60;;;17.40;62.40;;;;;;5088324;28;44114;-69
2022/12/21 09:49:44;;;;;;;1.80;1.70;;;17.40;62.40;;;;;;5087881;27;43436;-70
2022/12/21 09:52:17;;;;;;;1.50;1.50;;;17.40;62.40;;;;;;5086503;28;43795;-72
2022/12/21 09:54:47;;;;;;;1.97;1.87;;;17.50;62.50;;;;;;5087685;28;43803;-69
2022/12/21 09:57:15;;;;;;;1.33;1.33;;;17.40;63.20;;;;;;5069349;28;45007;-70
2022/12/21 09:59:43;;;;;;;1.60;1.60;;;17.40;62.60;;;;;;5069851;28;43825;-71
2022/12/21 10:02:18;;;;;;;1.50;1.50;;;17.40;62.70;;;;;;5088677;28;43497;-71
2022/12/21 10:04:51;;;;;;;1.70;1.70;;;17.50;62.60;;;;;;5069555;28;45237;-70
2022/12/21 10:08:02;;;;;;;1.50;1.50;;;17.60;62.30;;;;;;5087315;28;43404;-68
2022/12/21 10:10:31;;;;;;;1.50;1.50;;;17.60;62.00;;;;;;5088131;28;43847;-70
2022/12/21 10:13:01;;;;;;;1.53;1.47;;;17.60;62.00;;;;;;5089106;27;43478;-71
2022/12/21 10:15:32;;;;;;;1.57;1.57;;;17.60;62.10;;;;;;5087716;27;43887;-70
2022/12/21 10:18:09;;;;;;;1.40;1.40;;;17.60;62.30;;;;;;5087288;28;43521;-69
2022/12/21 10:20:46;;;;;;;1.37;1.37;;;17.50;62.10;;;;;;5087722;28;43418;-71
2022/12/21 10:23:18;;;;;;;1.20;1.20;;;17.50;62.10;;;;;;5088010;28;44146;-71
2022/12/21 10:25:48;;;;;;;1.40;1.40;;;17.50;62.20;;;;;;5087096;28;43958;-71
2022/12/21 10:28:24;;;;;;;1.40;1.40;;;17.50;62.30;;;;;;5087206;27;43830;-71
2022/12/21 10:30:55;;;;;;;1.33;1.33;;;17.40;62.40;;;;;;5085775;28;44153;-70
2022/12/21 10:33:24;;;;;;;1.40;1.40;;;17.40;62.50;;;;;;5068202;28;43466;-71
2022/12/21 10:35:54;;;;;;;1.20;1.20;;;17.40;62.40;;;;;;5091596;27;43943;-72
2022/12/21 10:38:21;;;;;;;1.50;1.50;;;17.50;62.50;;;;;;5087818;28;43466;-70
2022/12/21 10:40:52;;;;;;;1.90;1.80;;;17.40;62.40;;;;;;5089530;27;43429;-70
2022/12/21 10:43:20;;;;;;;1.40;1.40;;;17.40;62.40;;;;;;5088283;28;43476;-70
2022/12/21 10:45:48;;;;;;;1.50;1.50;;;17.40;62.50;;;;;;5087833;27;43985;-70
2022/12/21 10:48:16;;;;;;;1.80;1.70;;;17.40;62.70;;;;;;5087103;28;43465;-70
2022/12/21 10:50:46;;;;;;;1.27;1.27;;;17.40;62.60;;;;;;5068501;28;43466;-71
2022/12/21 10:53:19;;;;;;;1.50;1.50;;;17.40;62.50;;;;;;5069414;28;43602;-72
2022/12/21 10:55:47;;;;;;;1.40;1.40;;;17.40;62.50;;;;;;5086948;28;43737;-70
2022/12/21 10:58:17;;;;;;;1.50;1.50;;;17.50;62.60;;;;;;5087227;28;43421;-71
2022/12/21 11:00:50;;;;;;;1.20;1.20;;;17.40;62.60;;;;;;5068849;28;43466;-71
2022/12/21 11:03:24;;;;;;;1.30;1.30;;;17.40;62.70;;;;;;5086956;27;43810;-71
2022/12/21 11:05:53;;;;;;;1.30;1.30;;;17.50;62.80;;;;;;5087245;28;43971;-69
2022/12/21 11:08:24;;;;;;;1.30;1.30;;;17.60;62.50;;;;;;5087436;27;43401;-70
2022/12/21 11:10:54;;;;;;;1.30;1.30;;;17.60;62.20;;;;;;5087297;28;43413;-71
2022/12/21 11:13:23;;;;;;;1.07;1.07;;;17.60;62.10;;;;;;5087682;28;43466;-71
2022/12/21 11:15:52;;;;;;;1.50;1.50;;;17.60;62.10;;;;;;5086666;28;43831;-71
2022/12/21 11:18:39;;;;;;;1.43;1.43;;;17.60;62.20;;;;;;5084063;28;43351;-71
2022/12/21 11:21:27;;;;;;;1.40;1.40;;;17.60;62.20;;;;;;5085299;28;43465;-71
2022/12/21 11:23:59;;;;;;;1.40;1.40;;;17.60;62.20;;;;;;5087504;28;43757;-71
2022/12/21 11:26:29;;;;;;;1.30;1.30;;;17.60;62.30;;;;;;5081442;28;43931;-71
2022/12/21 11:29:04;;;;;;;1.20;1.20;;;17.50;62.20;;;;;;5090218;27;43512;-70
2022/12/21 11:31:32;;;;;;;1.47;1.47;;;17.50;62.30;;;;;;5086981;28;43417;-71
2022/12/21 11:34:19;;;;;;;1.10;1.10;;;17.50;62.50;;;;;;5084517;28;43396;-70
2022/12/21 11:36:56;;;;;;;1.30;1.30;;;17.50;62.40;;;;;;5070431;27;45601;-70
2022/12/21 11:39:24;;;;;;;1.40;1.40;;;17.50;62.40;;;;;;5088829;27;43371;-71
2022/12/21 11:41:53;;;;;;;1.20;1.20;;;17.50;62.40;;;;;;5086549;27;43525;-70
2022/12/21 11:44:24;;;;;;;1.20;1.20;;;17.50;62.50;;;;;;5086983;28;43560;-72
2022/12/21 11:46:58;;;;;;;1.30;1.30;;;17.50;62.50;;;;;;5086564;28;43830;-71
2022/12/21 11:50:02;;;;;;;1.20;1.20;;;17.50;62.60;;;;;;5086440;28;44020;-70
2022/12/21 11:52:37;;;;;;;1.20;1.20;;;17.50;62.70;;;;;;5059482;28;43476;-70
2022/12/21 11:55:09;;;;;;;1.20;1.20;;;17.60;62.40;;;;;;5086784;28;43454;-72
2022/12/21 11:57:44;;;;;;;1.10;1.10;;;17.70;62.10;;;;;;5086004;28;44023;-70
2022/12/21 12:00:14;;;;;;;1.50;1.40;;;17.70;62.00;;;;;;5086655;28;43904;-71
2022/12/21 12:03:23;;;;;;;1.13;1.13;;;17.60;62.00;;;;;;5085478;28;43402;-71
2022/12/21 12:06:00;;;;;;;1.10;1.10;;;17.60;62.20;;;;;;5082397;28;43668;-71
2022/12/21 12:08:39;;;;;;;1.33;1.33;;;17.60;62.20;;;;;;5067674;28;45527;-71
2022/12/21 12:11:23;;;;;;;1.27;1.27;;;17.60;62.20;;;;;;5086163;28;43471;-70
2022/12/21 12:14:03;;;;;;;1.03;1.03;;;17.60;62.20;;;;;;5087760;27;43359;-70
2022/12/21 12:16:32;;;;;;;1.60;1.50;;;17.60;62.30;;;;;;5083880;28;43641;-72
2022/12/21 12:19:07;;;;;;;1.40;1.40;;;17.60;62.40;;;;;;5089328;28;43704;-71
2022/12/21 12:21:58;;;;;;;1.23;1.23;;;17.50;62.50;;;;;;5089374;28;43519;-70
2022/12/21 12:24:55;;;;;;;1.30;1.30;;;17.50;62.50;;;;;;5069519;28;44101;-69
2022/12/21 12:27:31;;;;;;;1.20;1.20;;;17.50;62.40;;;;;;5089552;28;43813;-70
2022/12/21 12:30:06;;;;;;;1.30;1.30;;;17.50;62.50;;;;;;5070992;28;46106;-70
2022/12/21 12:32:45;;;;;;;1.37;1.37;;;17.50;62.50;;;;;;5089268;28;43432;-69
2022/12/21 12:35:25;;;;;;;1.00;1.00;;;17.50;62.70;;;;;;5070804;28;43373;-70
2022/12/21 12:37:59;;;;;;;1.33;1.33;;;17.50;62.70;;;;;;5086679;28;43436;-71
2022/12/21 12:40:31;;;;;;;1.30;1.30;;;17.50;62.70;;;;;;5068930;28;46094;-70
2022/12/21 12:43:01;;;;;;;1.33;1.33;;;17.50;62.60;;;;;;5089378;28;43497;-71
2022/12/21 12:45:33;;;;;;;1.37;1.37;;;17.50;62.60;;;;;;5089037;28;43453;-70
2022/12/21 12:48:07;;;;;;;1.87;1.57;;;17.50;62.70;;;;;;5089324;28;44073;-70
2022/12/21 12:50:38;;;;;;;1.20;1.20;;;17.50;62.90;;;;;;5085664;27;43838;-70
2022/12/21 12:53:24;;;;;;;1.20;1.20;;;17.50;62.90;;;;;;5070856;28;44719;-70
2022/12/21 12:55:58;;;;;;;1.23;1.23;;;17.60;62.70;;;;;;5068407;28;43482;-70
2022/12/21 12:58:37;;;;;;;1.20;1.20;;;17.70;62.40;;;;;;5089503;28;43400;-70
2022/12/21 13:01:09;;;;;;;1.30;1.30;;;17.70;62.00;;;;;;5089323;27;43740;-71
2022/12/21 13:03:59;;;;;;;1.10;1.10;;;17.70;62.00;;;;;;5090229;27;43427;-71
2022/12/21 13:06:31;;;;;;;1.30;1.30;;;17.70;62.20;;;;;;5089603;27;43434;-71
2022/12/21 13:09:01;;;;;;;1.20;1.20;;;17.70;62.20;;;;;;5089345;28;43450;-72
2022/12/21 13:11:35;;;;;;;1.00;1.00;;;17.70;62.30;;;;;;5063820;28;43764;-70
2022/12/21 13:14:06;;;;;;;1.23;1.23;;;17.60;62.20;;;;;;5067508;28;44851;-71
2022/12/21 13:16:37;;;;;;;1.03;1.03;;;17.60;62.30;;;;;;5087876;28;43774;-70
2022/12/21 13:19:06;;;;;;;1.33;1.33;;;17.60;62.40;;;;;;5087719;28;43475;-70
2022/12/21 13:21:34;;;;;;;1.40;1.40;;;17.50;62.50;;;;;;5088791;28;43848;-70